Terminal Aerodrome Forecast
Issued by NWS

Home | Current Version | Previous Version | Text Only | Print | Product List | Glossary On
Versions: 1 2 3 4 5 6 7 8 9 10 11 12 13 14 15 16 17 18 19 20 21 22 23 24 25 26 27 28 29 30 31 32 33 34 35 36 37 38 39 40 41 42 43 44 45 46 47 48 49 50
000
FTUS45 KBOU 080534
TAFBJC
TAF
KBJC 080534Z 0806/0906 33006KT P6SM -RA BKN010 BKN050
     FM081100 25010KT P6SM VCSH SCT050 BKN080
     FM081500 34010KT P6SM VCSH BKN050 OVC080
     FM081800 34012KT P6SM -SHRA BKN050 OVC080
      TEMPO 0818/0822 3SM -TSRA BKN030CB
     FM082200 34012KT P6SM -SHRA BKN050 OVC080 PROB30 0822/0902
      -TSRA BKN030CB
     FM090200 34010KT P6SM VCTS SCT050CB BKN080
      TEMPO 0902/0906 5SM -TSRA BKN050CB=

USA.gov is the U.S. government's official web portal to all federal, state and local government web resources and services.